Time,TemperatureF,DewpointF,PressureIn,WindDirection,WindDirectionDegrees,WindSpeedMPH,WindSpeedGustMPH,Humidity,HourlyPrecipIn,Conditions,Clouds,dailyrainin,SoftwareType,DateUTC
2013-03-09 00:11:00,45.2,31.0,30.22,ESE,107,1.0,4.0,59,0.00,,,0.00,weatherlink.com 1.10,2013-03-09 06:11:00,
2013-03-09 00:26:00,44.9,32.0,30.21,ESE,107,2.0,4.0,61,0.00,,,0.00,weatherlink.com 1.10,2013-03-09 06:26:00,
2013-03-09 00:41:00,44.8,32.0,30.21,ENE,75,2.0,4.0,61,0.00,,,0.00,weatherlink.com 1.10,2013-03-09 06:41:00,
2013-03-09 00:56:00,44.5,32.0,30.21,ESE,114,1.0,4.0,62,0.00,,,0.00,weatherlink.com 1.10,2013-03-09 06:56:00,
2013-03-09 01:11:00,44.1,32.0,30.20,ESE,117,0.0,5.0,62,0.00,,,0.00,weatherlink.com 1.10,2013-03-09 07:11:00,
2013-03-09 01:26:00,43.5,32.0,30.19,ESE,117,1.0,5.0,64,0.00,,,0.00,weatherlink.com 1.10,2013-03-09 07:26:00,
2013-03-09 01:41:00,44.0,32.0,30.19,ESE,118,2.0,3.0,62,0.00,,,0.00,weatherlink.com 1.10,2013-03-09 07:41:00,
2013-03-09 01:56:00,44.1,32.0,30.18,ESE,114,1.0,2.0,63,0.00,,,0.00,weatherlink.com 1.10,2013-03-09 07:56:00,
2013-03-09 02:11:00,43.8,32.0,30.17,ESE,114,0.0,2.0,64,0.00,,,0.00,weatherlink.com 1.10,2013-03-09 08:11:00,
2013-03-09 02:26:00,43.3,32.0,30.16,ESE,115,0.0,2.0,65,0.00,,,0.00,weatherlink.com 1.10,2013-03-09 08:26:00,
2013-03-09 02:41:00,43.1,32.0,30.16,ESE,115,1.0,4.0,65,0.00,,,0.00,weatherlink.com 1.10,2013-03-09 08:41:00,
2013-03-09 02:56:00,42.4,33.0,30.16,ESE,115,0.0,4.0,69,0.00,,,0.00,weatherlink.com 1.10,2013-03-09 08:56:00,
2013-03-09 03:11:00,42.6,33.0,30.16,ESE,115,0.0,2.0,68,0.00,,,0.00,weatherlink.com 1.10,2013-03-09 09:11:00,
2013-03-09 03:26:00,42.5,33.0,30.16,ESE,115,1.0,1.0,69,0.00,,,0.00,weatherlink.com 1.10,2013-03-09 09:26:00,
2013-03-09 03:41:00,42.7,33.0,30.16,ESE,115,1.0,4.0,68,0.00,,,0.00,weatherlink.com 1.10,2013-03-09 09:41:00,
2013-03-09 03:56:00,42.7,33.0,30.15,ESE,115,1.0,2.0,68,0.00,,,0.00,weatherlink.com 1.10,2013-03-09 09:56:00,
2013-03-09 04:11:00,42.8,32.0,30.16,ESE,115,0.0,4.0,67,0.00,,,0.00,weatherlink.com 1.10,2013-03-09 10:11:00,
2013-03-09 04:26:00,42.6,32.0,30.15,ESE,115,0.0,2.0,67,0.00,,,0.00,weatherlink.com 1.10,2013-03-09 10:26:00,
2013-03-09 04:42:00,41.8,32.0,30.15,ESE,115,0.0,2.0,69,0.00,,,0.00,weatherlink.com 1.10,2013-03-09 10:42:00,
2013-03-09 04:57:00,41.7,33.0,30.16,West,267,0.0,2.0,71,0.00,,,0.00,weatherlink.com 1.10,2013-03-09 10:57:00,
2013-03-09 05:12:00,41.4,32.0,30.16,West,267,3.0,3.0,70,0.00,,,0.00,weatherlink.com 1.10,2013-03-09 11:12:00,
2013-03-09 05:27:00,39.8,33.0,30.16,West,267,0.0,0.0,77,0.00,,,0.00,weatherlink.com 1.10,2013-03-09 11:27:00,
2013-03-09 05:42:00,41.0,33.0,30.15,West,267,1.0,1.0,74,0.00,,,0.00,weatherlink.com 1.10,2013-03-09 11:42:00,
2013-03-09 05:57:00,42.1,33.0,30.14,South,175,2.0,4.0,70,0.00,,,0.00,weatherlink.com 1.10,2013-03-09 11:57:00,
2013-03-09 06:12:00,42.5,33.0,30.13,SE,142,4.0,6.0,69,0.00,,,0.00,weatherlink.com 1.10,2013-03-09 12:12:00,
2013-03-09 06:27:00,43.0,33.0,30.14,SSE,147,0.0,7.0,67,0.00,,,0.00,weatherlink.com 1.10,2013-03-09 12:27:00,
2013-03-09 06:42:00,43.3,33.0,30.15,SSE,147,0.0,4.0,67,0.00,,,0.00,weatherlink.com 1.10,2013-03-09 12:42:00,
2013-03-09 06:57:00,43.7,33.0,30.16,SSE,150,1.0,4.0,66,0.00,,,0.00,weatherlink.com 1.10,2013-03-09 12:57:00,
2013-03-09 07:12:00,43.7,33.0,30.16,SSE,150,1.0,2.0,67,0.00,,,0.00,weatherlink.com 1.10,2013-03-09 13:12:00,
2013-03-09 07:27:00,44.0,34.0,30.16,SSE,150,0.0,1.0,67,0.00,,,0.00,weatherlink.com 1.10,2013-03-09 13:27:00,
2013-03-09 07:42:00,44.1,34.0,30.17,SSE,150,0.0,2.0,68,0.00,,,0.00,weatherlink.com 1.10,2013-03-09 13:42:00,
2013-03-09 07:57:00,44.7,33.0,30.17,North,5,0.0,2.0,65,0.00,,,0.00,weatherlink.com 1.10,2013-03-09 13:57:00,
2013-03-09 08:12:00,45.2,34.0,30.16,SSE,155,2.0,5.0,65,0.00,,,0.00,weatherlink.com 1.10,2013-03-09 14:12:00,
2013-03-09 08:27:00,46.1,34.0,30.16,SSE,158,2.0,6.0,62,0.00,,,0.00,weatherlink.com 1.10,2013-03-09 14:27:00,
2013-03-09 08:42:00,47.2,34.0,30.16,SE,143,5.0,6.0,61,0.00,,,0.00,weatherlink.com 1.10,2013-03-09 14:42:00,
2013-03-09 08:57:00,48.2,33.0,30.16,SSE,153,4.0,9.0,56,0.00,,,0.00,weatherlink.com 1.10,2013-03-09 14:57:00,
2013-03-09 09:12:00,51.5,33.0,30.16,South,191,4.0,10.0,50,0.00,,,0.00,weatherlink.com 1.10,2013-03-09 15:12:00,
2013-03-09 09:27:00,51.4,34.0,30.16,WSW,248,1.0,9.0,52,0.00,,,0.00,weatherlink.com 1.10,2013-03-09 15:27:00,
2013-03-09 09:42:00,52.1,34.0,30.15,SSE,151,1.0,6.0,50,0.00,,,0.00,weatherlink.com 1.10,2013-03-09 15:42:00,
2013-03-09 09:57:00,53.1,34.0,30.14,SSE,153,3.0,8.0,48,0.00,,,0.00,weatherlink.com 1.10,2013-03-09 15:57:00,
2013-03-09 10:12:00,52.7,33.0,30.14,SSE,150,6.0,10.0,48,0.00,,,0.00,weatherlink.com 1.10,2013-03-09 16:12:00,
2013-03-09 10:27:00,52.4,34.0,30.14,SSE,150,3.0,7.0,50,0.00,,,0.00,weatherlink.com 1.10,2013-03-09 16:27:00,
2013-03-09 10:42:00,52.1,34.0,30.13,SE,142,4.0,7.0,51,0.00,,,0.00,weatherlink.com 1.10,2013-03-09 16:42:00,
2013-03-09 10:57:00,53.1,35.0,30.12,SSE,155,1.0,6.0,51,0.00,,,0.00,weatherlink.com 1.10,2013-03-09 16:57:00,
2013-03-09 11:12:00,54.0,37.0,30.12,SE,141,5.0,6.0,52,0.00,,,0.00,weatherlink.com 1.10,2013-03-09 17:12:00,
2013-03-09 11:27:00,54.6,38.0,30.11,SE,134,4.0,11.0,53,0.00,,,0.00,weatherlink.com 1.10,2013-03-09 17:27:00,
2013-03-09 11:42:00,55.4,37.0,30.11,SSE,153,4.0,7.0,51,0.00,,,0.00,weatherlink.com 1.10,2013-03-09 17:42:00,
2013-03-09 11:58:00,56.4,37.0,30.10,SSE,151,6.0,7.0,49,0.00,,,0.00,weatherlink.com 1.10,2013-03-09 17:58:00,
2013-03-09 12:13:00,57.8,37.0,30.09,SSE,160,1.0,8.0,47,0.00,,,0.00,weatherlink.com 1.10,2013-03-09 18:13:00,
2013-03-09 12:28:00,58.1,38.0,30.08,SSE,165,4.0,8.0,47,0.00,,,0.00,weatherlink.com 1.10,2013-03-09 18:28:00,
2013-03-09 12:43:00,61.4,40.0,30.07,SSE,157,3.0,8.0,45,0.00,,,0.00,weatherlink.com 1.10,2013-03-09 18:43:00,
2013-03-09 12:58:00,62.2,37.0,30.06,South,178,2.0,8.0,40,0.00,,,0.00,weatherlink.com 1.10,2013-03-09 18:58:00,
2013-03-09 13:13:00,62.3,38.0,30.05,SE,140,4.0,10.0,40,0.00,,,0.00,weatherlink.com 1.10,2013-03-09 19:13:00,
2013-03-09 13:28:00,62.7,37.0,30.04,SSE,153,4.0,9.0,38,0.00,,,0.00,weatherlink.com 1.10,2013-03-09 19:28:00,
2013-03-09 13:43:00,65.5,38.0,30.03,SE,139,6.0,10.0,37,0.00,,,0.00,weatherlink.com 1.10,2013-03-09 19:43:00,
2013-03-09 13:58:00,65.8,38.0,30.03,SSW,198,2.0,13.0,36,0.00,,,0.00,weatherlink.com 1.10,2013-03-09 19:58:00,
2013-03-09 14:13:00,64.8,36.0,30.02,South,179,3.0,12.0,35,0.00,,,0.00,weatherlink.com 1.10,2013-03-09 20:13:00,
2013-03-09 14:28:00,65.1,41.0,30.02,SE,124,5.0,11.0,41,0.00,,,0.00,weatherlink.com 1.10,2013-03-09 20:28:00,
2013-03-09 14:43:00,64.6,39.0,30.01,SE,144,2.0,7.0,39,0.00,,,0.00,weatherlink.com 1.10,2013-03-09 20:43:00,
2013-03-09 14:58:00,66.0,37.0,30.00,SSE,159,7.0,12.0,35,0.00,,,0.00,weatherlink.com 1.10,2013-03-09 20:58:00,
2013-03-09 15:13:00,66.2,38.0,30.00,SE,140,6.0,9.0,36,0.00,,,0.00,weatherlink.com 1.10,2013-03-09 21:13:00,
2013-03-09 15:28:00,65.8,36.0,30.00,SE,144,6.0,12.0,33,0.00,,,0.00,weatherlink.com 1.10,2013-03-09 21:28:00,
2013-03-09 15:43:00,64.7,37.0,29.99,SSE,153,4.0,10.0,36,0.00,,,0.00,weatherlink.com 1.10,2013-03-09 21:43:00,
2013-03-09 15:58:00,65.2,40.0,29.98,SE,140,2.0,7.0,40,0.00,,,0.00,weatherlink.com 1.10,2013-03-09 21:58:00,
2013-03-09 16:13:00,65.4,39.0,29.98,SSE,155,5.0,8.0,38,0.00,,,0.00,weatherlink.com 1.10,2013-03-09 22:13:00,
2013-03-09 16:28:00,65.4,36.0,29.97,SSW,203,4.0,8.0,34,0.00,,,0.00,weatherlink.com 1.10,2013-03-09 22:28:00,
2013-03-09 16:43:00,64.9,36.0,29.98,SE,140,6.0,10.0,35,0.00,,,0.00,weatherlink.com 1.10,2013-03-09 22:43:00,
2013-03-09 16:58:00,64.0,35.0,29.98,SE,134,8.0,9.0,34,0.00,,,0.00,weatherlink.com 1.10,2013-03-09 22:58:00,
2013-03-09 17:13:00,63.4,36.0,29.97,SSE,158,1.0,7.0,36,0.00,,,0.00,weatherlink.com 1.10,2013-03-09 23:13:00,
2013-03-09 17:28:00,63.2,36.0,29.96,SSE,157,2.0,7.0,36,0.00,,,0.00,weatherlink.com 1.10,2013-03-09 23:28:00,
2013-03-09 17:43:00,62.6,35.0,29.96,SSE,152,2.0,5.0,36,0.00,,,0.00,weatherlink.com 1.10,2013-03-09 23:43:00,
2013-03-09 17:58:00,61.0,34.0,29.97,SE,145,2.0,5.0,37,0.00,,,0.00,weatherlink.com 1.10,2013-03-09 23:58:00,
2013-03-09 18:13:00,60.0,35.0,29.97,SSE,151,1.0,5.0,39,0.00,,,0.00,weatherlink.com 1.10,2013-03-10 00:13:00,
2013-03-09 18:28:00,58.9,35.0,29.96,SSE,149,2.0,5.0,41,0.00,,,0.00,weatherlink.com 1.10,2013-03-10 00:28:00,
2013-03-09 18:43:00,59.0,35.0,29.96,SSE,147,1.0,2.0,41,0.00,,,0.00,weatherlink.com 1.10,2013-03-10 00:43:00,
2013-03-09 18:58:00,59.2,35.0,29.96,SE,143,2.0,5.0,41,0.00,,,0.00,weatherlink.com 1.10,2013-03-10 00:58:00,
2013-03-09 19:13:00,57.7,36.0,29.96,SE,143,0.0,2.0,45,0.00,,,0.00,weatherlink.com 1.10,2013-03-10 01:13:00,
2013-03-09 19:28:00,56.4,36.0,29.97,SE,143,0.0,0.0,47,0.00,,,0.00,weatherlink.com 1.10,2013-03-10 01:28:00,
2013-03-09 19:43:00,55.8,37.0,29.96,SE,143,0.0,0.0,49,0.00,,,0.00,weatherlink.com 1.10,2013-03-10 01:43:00,
2013-03-09 19:58:00,53.8,37.0,29.96,SE,143,0.0,0.0,54,0.00,,,0.00,weatherlink.com 1.10,2013-03-10 01:58:00,
2013-03-09 20:13:00,55.4,37.0,29.96,SE,143,2.0,4.0,50,0.00,,,0.00,weatherlink.com 1.10,2013-03-10 02:13:00,
2013-03-09 20:28:00,57.6,37.0,29.95,SE,146,4.0,5.0,46,0.00,,,0.00,weatherlink.com 1.10,2013-03-10 02:28:00,
2013-03-09 20:43:00,57.3,38.0,29.96,SE,146,3.0,5.0,48,0.00,,,0.00,weatherlink.com 1.10,2013-03-10 02:43:00,
2013-03-09 20:58:00,57.6,37.0,29.95,SE,144,5.0,6.0,47,0.00,,,0.00,weatherlink.com 1.10,2013-03-10 02:58:00,
2013-03-09 21:13:00,57.0,38.0,29.95,SSE,153,2.0,3.0,49,0.00,,,0.00,weatherlink.com 1.10,2013-03-10 03:13:00,
2013-03-09 21:28:00,56.5,38.0,29.95,SSE,159,2.0,4.0,50,0.00,,,0.00,weatherlink.com 1.10,2013-03-10 03:28:00,
2013-03-09 21:43:00,56.9,38.0,29.95,SSE,153,2.0,5.0,50,0.00,,,0.00,weatherlink.com 1.10,2013-03-10 03:43:00,
2013-03-09 21:58:00,56.1,38.0,29.95,SSE,151,2.0,5.0,51,0.00,,,0.00,weatherlink.com 1.10,2013-03-10 03:58:00,
2013-03-09 22:13:00,54.7,38.0,29.96,SSE,157,0.0,2.0,53,0.00,,,0.00,weatherlink.com 1.10,2013-03-10 04:13:00,
2013-03-09 22:29:00,53.1,38.0,29.95,SSE,157,0.0,1.0,57,0.00,,,0.00,weatherlink.com 1.10,2013-03-10 04:29:00,
2013-03-09 22:44:00,52.5,38.0,29.95,SSE,158,1.0,2.0,58,0.00,,,0.00,weatherlink.com 1.10,2013-03-10 04:44:00,
2013-03-09 22:59:00,53.8,38.0,29.93,SSE,150,4.0,6.0,56,0.00,,,0.00,weatherlink.com 1.10,2013-03-10 04:59:00,
2013-03-09 23:14:00,55.3,39.0,29.93,SSE,165,1.0,7.0,54,0.00,,,0.00,weatherlink.com 1.10,2013-03-10 05:14:00,
2013-03-09 23:29:00,55.0,38.0,29.93,SSE,153,1.0,5.0,54,0.00,,,0.00,weatherlink.com 1.10,2013-03-10 05:29:00,
2013-03-09 23:44:00,54.6,39.0,29.92,SE,134,2.0,6.0,55,0.00,,,0.00,weatherlink.com 1.10,2013-03-10 05:44:00,
2013-03-09 23:59:00,54.5,39.0,29.91,SSE,150,1.0,6.0,56,0.00,,,0.00,weatherlink.com 1.10,2013-03-10 05:59:00,